Time;durP1;ratioP1;P1;durP2;ratioP2;P2;SDS_P1;SDS_P2;PMS_P1;PMS_P2;Temp;Humidity;BMP_temperature;BMP_pressure;BME280_temperature;BME280_humidity;BME280_pressure;Samples;Min_cycle;Max_cycle;Signal;HPM_P1;HPM_P2
2023/04/11 00:01:06;;;;;;;;;;;;;;;11.72;100.00;100075.25;5021284;28;19951;-84
2023/04/11 00:03:31;;;;;;;;;;;;;;;11.68;100.00;100079.16;5003868;28;20059;-84
2023/04/11 00:05:57;;;;;;;;;;;;;;;11.60;100.00;100081.66;5007207;28;20031;-85
2023/04/11 00:08:22;;;;;;;;;;;;;;;11.63;100.00;100081.38;5004879;28;20012;-83
2023/04/11 00:10:47;;;;;;;;;;;;;;;11.58;100.00;100072.19;5005202;28;19922;-82
2023/04/11 00:13:13;;;;;;;;;;;;;;;11.51;100.00;100074.53;5006812;28;19925;-80
2023/04/11 00:15:38;;;;;;;;;;;;;;;11.47;100.00;100071.34;5006714;28;19929;-80
2023/04/11 00:18:05;;;;;;;;;;;;;;;11.34;100.00;100075.19;5005561;28;19952;-81
2023/04/11 00:20:30;;;;;;;;;;;;;;;11.16;100.00;100067.06;5003568;28;19997;-79
2023/04/11 00:22:57;;;;;;;;;;;;;;;11.09;100.00;100053.56;5004098;28;20262;-79
2023/04/11 00:25:22;;;;;;;;;;;;;;;11.15;100.00;100035.50;5004638;28;19928;-79
2023/04/11 00:27:48;;;;;;;;;;;;;;;11.13;100.00;100029.53;5002566;28;19922;-81
2023/04/11 00:30:15;;;;;;;;;;;;;;;11.19;100.00;100023.72;5004752;28;19929;-80
2023/04/11 00:32:44;;;;;;;;;;;;;;;11.18;100.00;100017.59;5002293;28;19925;-80
2023/04/11 00:35:10;;;;;;;;;;;;;;;11.24;100.00;100008.28;5006015;28;19928;-80
2023/04/11 00:37:35;;;;;;;;;;;;;;;11.26;100.00;100003.69;5002590;28;19921;-81
2023/04/11 00:40:04;;;;;;;;;;;;;;;11.34;100.00;100001.22;5004623;28;19964;-83
2023/04/11 00:42:29;;;;;;;;;;;;;;;11.33;100.00;99994.25;5009190;28;20028;-80
2023/04/11 00:44:55;;;;;;;;;;;;;;;11.30;100.00;99999.81;5003590;28;19956;-81
2023/04/11 00:47:20;;;;;;;;;;;;;;;11.18;100.00;99996.47;5018585;28;19922;-79
2023/04/11 00:49:45;;;;;;;;;;;;;;;10.98;100.00;99995.56;5019633;28;20019;-79
2023/04/11 00:52:12;;;;;;;;;;;;;;;10.78;100.00;99999.09;5004753;28;19922;-79
2023/04/11 00:54:38;;;;;;;;;;;;;;;10.74;100.00;99989.78;5001810;28;19922;-79
2023/04/11 00:57:05;;;;;;;;;;;;;;;10.50;100.00;99983.97;5004345;28;19922;-81
2023/04/11 00:59:31;;;;;;;;;;;;;;;10.43;100.00;99996.03;4999926;28;19925;-79
2023/04/11 01:01:57;;;;;;;;;;;;;;;10.29;100.00;99996.38;5001782;28;19926;-80
2023/04/11 01:04:23;;;;;;;;;;;;;;;10.17;100.00;99996.47;5019395;28;19972;-83
2023/04/11 01:06:54;;;;;;;;;;;;;;;10.25;100.00;99985.22;5045925;28;20000;-82
2023/04/11 01:09:20;;;;;;;;;;;;;;;10.32;100.00;99982.91;5014707;28;19922;-83
2023/04/11 01:11:47;;;;;;;;;;;;;;;10.34;100.00;99981.00;5031107;28;19928;-82
2023/04/11 01:14:13;;;;;;;;;;;;;;;10.34;100.00;99978.34;5016611;28;19922;-82
2023/04/11 01:16:38;;;;;;;;;;;;;;;10.35;100.00;99985.31;5021397;28;20024;-82
2023/04/11 01:19:05;;;;;;;;;;;;;;;10.30;100.00;99992.78;5001801;28;19925;-83
2023/04/11 01:21:31;;;;;;;;;;;;;;;10.35;100.00;100007.25;5030825;28;19921;-84
2023/04/11 01:23:57;;;;;;;;;;;;;;;10.32;100.00;100001.38;5022884;28;19945;-85
2023/04/11 01:26:22;;;;;;;;;;;;;;;10.30;100.00;100008.59;5056264;28;19926;-83
2023/04/11 01:28:48;;;;;;;;;;;;;;;10.15;100.00;100006.25;5039168;28;19917;-84
2023/04/11 01:31:13;;;;;;;;;;;;;;;10.06;100.00;100007.03;5024507;28;20004;-84
2023/04/11 01:33:39;;;;;;;;;;;;;;;10.06;100.00;100001.75;5021202;28;20390;-83
2023/04/11 01:36:06;;;;;;;;;;;;;;;10.02;100.00;100000.31;5002021;28;19936;-81
2023/04/11 01:38:32;;;;;;;;;;;;;;;10.07;100.00;99990.22;5003581;28;20445;-80
2023/04/11 01:40:59;;;;;;;;;;;;;;;10.10;100.00;99990.00;5035152;28;19933;-81
2023/04/11 01:43:24;;;;;;;;;;;;;;;9.71;100.00;99990.69;5027418;28;20282;-81
2023/04/11 01:45:50;;;;;;;;;;;;;;;9.32;100.00;99979.78;5027593;28;19968;-81
2023/04/11 01:48:15;;;;;;;;;;;;;;;9.29;100.00;99977.41;5027605;28;19922;-81
2023/04/11 01:50:41;;;;;;;;;;;;;;;9.28;100.00;99972.28;5004655;28;19968;-81
2023/04/11 01:53:06;;;;;;;;;;;;;;;9.20;100.00;99964.97;5018672;28;19964;-81
2023/04/11 01:55:31;;;;;;;;;;;;;;;9.38;100.00;99947.69;5033044;28;20381;-81
2023/04/11 01:57:57;;;;;;;;;;;;;;;9.43;100.00;99945.50;5002129;28;19921;-82
2023/04/11 02:00:22;;;;;;;;;;;;;;;9.33;100.00;99949.88;5034467;28;20400;-83
2023/04/11 02:02:48;;;;;;;;;;;;;;;9.52;100.00;99940.47;5001340;28;19922;-83
2023/04/11 02:05:13;;;;;;;;;;;;;;;9.58;100.00;99932.03;5007945;28;19929;-81
2023/04/11 02:07:39;;;;;;;;;;;;;;;9.60;100.00;99922.22;5008964;28;19944;-81
2023/04/11 02:10:05;;;;;;;;;;;;;;;9.65;100.00;99906.88;5033897;28;19925;-78
2023/04/11 02:12:31;;;;;;;;;;;;;;;9.68;100.00;99898.69;5010505;28;19922;-80
2023/04/11 02:14:56;;;;;;;;;;;;;;;9.73;100.00;99909.69;5032199;28;19940;-81
2023/04/11 02:17:24;;;;;;;;;;;;;;;9.69;100.00;99910.91;5027067;28;19926;-82
2023/04/11 02:19:50;;;;;;;;;;;;;;;9.66;100.00;99911.19;5007499;28;19930;-80
2023/04/11 02:22:16;;;;;;;;;;;;;;;9.56;100.00;99902.34;5010175;28;19972;-80
2023/04/11 02:24:41;;;;;;;;;;;;;;;9.45;100.00;99909.34;5009652;28;19929;-80
2023/04/11 02:27:07;;;;;;;;;;;;;;;9.62;100.00;99918.47;5033339;28;19925;-80
2023/04/11 02:29:33;;;;;;;;;;;;;;;9.58;100.00;99922.34;5006424;28;20066;-81
2023/04/11 02:31:58;;;;;;;;;;;;;;;9.58;100.00;99924.16;5025736;28;20447;-81
2023/04/11 02:34:24;;;;;;;;;;;;;;;9.55;100.00;99924.38;5040809;28;19944;-81
2023/04/11 02:36:49;;;;;;;;;;;;;;;9.58;100.00;99921.50;5024076;28;19932;-80
2023/04/11 02:39:15;;;;;;;;;;;;;;;9.57;100.00;99914.56;5022104;28;19949;-80
2023/04/11 02:41:41;;;;;;;;;;;;;;;9.55;100.00;99921.75;5007696;28;19921;-81
2023/04/11 02:44:08;;;;;;;;;;;;;;;9.58;100.00;99926.78;5011208;28;19926;-81
2023/04/11 02:46:33;;;;;;;;;;;;;;;9.54;100.00;99935.91;5009291;28;19927;-80
2023/04/11 02:48:59;;;;;;;;;;;;;;;9.56;100.00;99944.50;5035534;28;20012;-81
2023/04/11 02:51:26;;;;;;;;;;;;;;;9.52;100.00;99940.47;5009937;28;19921;-80
2023/04/11 02:53:51;;;;;;;;;;;;;;;9.36;100.00;99939.09;5007410;28;19921;-81
2023/04/11 02:56:18;;;;;;;;;;;;;;;9.17;100.00;99928.38;5019467;28;19926;-82
2023/04/11 02:58:46;;;;;;;;;;;;;;;9.21;100.00;99908.72;5038640;28;19929;-82
2023/04/11 03:01:15;;;;;;;;;;;;;;;9.18;100.00;99901.09;5010223;28;19922;-82
2023/04/11 03:03:41;;;;;;;;;;;;;;;9.13;100.00;99905.06;5037875;28;20008;-82
2023/04/11 03:06:07;;;;;;;;;;;;;;;9.06;100.00;99910.00;5035414;28;20262;-82
2023/04/11 03:08:37;;;;;;;;;;;;;;;9.02;100.00;99914.66;5038007;28;20008;-83
2023/04/11 03:11:02;;;;;;;;;;;;;;;8.97;100.00;99910.72;5025074;28;19965;-83
2023/04/11 03:13:28;;;;;;;;;;;;;;;8.93;100.00;99904.03;5005498;28;20329;-82
2023/04/11 03:15:54;;;;;;;;;;;;;;;8.91;100.00;99905.97;5004712;28;20294;-83
2023/04/11 03:18:24;;;;;;;;;;;;;;;8.91;100.00;99906.78;5036264;28;20007;-82
2023/04/11 03:20:50;;;;;;;;;;;;;;;8.95;100.00;99896.88;5007407;28;20047;-82
2023/04/11 03:23:16;;;;;;;;;;;;;;;9.00;100.00;99892.06;5026568;28;19929;-82
2023/04/11 03:25:43;;;;;;;;;;;;;;;9.07;100.00;99890.63;5012639;28;19922;-83
2023/04/11 03:28:09;;;;;;;;;;;;;;;9.14;100.00;99875.13;5026918;28;19932;-83
2023/04/11 03:30:39;;;;;;;;;;;;;;;9.19;100.00;99858.00;5039013;28;19906;-83
2023/04/11 03:33:05;;;;;;;;;;;;;;;9.15;100.00;99856.56;5051562;28;20023;-83
2023/04/11 03:35:30;;;;;;;;;;;;;;;9.20;100.00;99854.41;5012374;28;19972;-81
2023/04/11 03:37:56;;;;;;;;;;;;;;;9.20;100.00;99857.03;5011233;28;19929;-84
2023/04/11 03:40:21;;;;;;;;;;;;;;;9.27;100.00;99863.47;5008153;28;19963;-81
2023/04/11 03:42:52;;;;;;;;;;;;;;;9.25;100.00;99868.00;5004556;28;19971;-81
2023/04/11 03:45:23;;;;;;;;;;;;;;;9.17;100.00;99867.81;5034091;28;19930;-81
2023/04/11 03:47:51;;;;;;;;;;;;;;;9.14;100.00;99872.50;5025362;28;19995;-80
2023/04/11 03:50:20;;;;;;;;;;;;;;;9.10;100.00;99868.44;5033377;28;19928;-80
2023/04/11 03:52:49;;;;;;;;;;;;;;;9.16;100.00;99874.06;5007549;28;19925;-83
2023/04/11 03:55:15;;;;;;;;;;;;;;;9.11;100.00;99870.13;5004177;28;20600;-81
2023/04/11 03:57:42;;;;;;;;;;;;;;;9.09;100.00;99866.78;5025166;28;19921;-83
2023/04/11 04:00:08;;;;;;;;;;;;;;;9.14;100.00;99864.59;5020873;28;20266;-79
2023/04/11 04:02:40;;;;;;;;;;;;;;;9.06;100.00;99865.25;5010222;28;19928;-81
2023/04/11 04:05:07;;;;;;;;;;;;;;;9.14;100.00;99870.69;5024233;28;19929;-81
2023/04/11 04:07:35;;;;;;;;;;;;;;;9.09;100.00;99882.56;5038788;28;19922;-79
2023/04/11 04:10:10;;;;;;;;;;;;;;;8.92;100.00;99886.56;5041153;28;19921;-80
2023/04/11 04:12:38;;;;;;;;;;;;;;;8.85;100.00;99893.28;5012481;28;19929;-81
2023/04/11 04:15:13;;;;;;;;;;;;;;;8.77;100.00;99890.47;5027533;28;20378;-82
2023/04/11 04:17:40;;;;;;;;;;;;;;;8.73;100.00;99886.38;5025185;28;20327;-82
2023/04/11 04:20:10;;;;;;;;;;;;;;;8.66;100.00;99893.13;5028894;28;19921;-82
2023/04/11 04:22:37;;;;;;;;;;;;;;;8.57;100.00;99897.28;5027421;28;19922;-82
2023/04/11 04:25:04;;;;;;;;;;;;;;;8.57;100.00;99898.13;5028374;28;19998;-82
2023/04/11 04:27:31;;;;;;;;;;;;;;;8.65;100.00;99894.06;5012173;28;19944;-83
2023/04/11 04:29:57;;;;;;;;;;;;;;;8.56;100.00;99890.34;5040418;28;19922;-82
2023/04/11 04:32:27;;;;;;;;;;;;;;;8.58;100.00;99894.56;5027093;28;19922;-81
2023/04/11 04:34:57;;;;;;;;;;;;;;;8.58;100.00;99899.81;5025654;28;19918;-81
2023/04/11 04:37:38;;;;;;;;;;;;;;;8.54;100.00;99887.03;5016732;28;19921;-81
2023/04/11 04:40:19;;;;;;;;;;;;;;;8.57;100.00;99877.09;5018520;28;19917;-79
2023/04/11 04:43:07;;;;;;;;;;;;;;;8.58;100.00;99868.25;5037419;28;20547;-81
2023/04/11 04:45:46;;;;;;;;;;;;;;;8.61;100.00;99865.34;5036761;28;19930;-82
2023/04/11 04:48:16;;;;;;;;;;;;;;;8.72;100.00;99864.50;5008709;28;19921;-82
2023/04/11 04:50:42;;;;;;;;;;;;;;;8.74;100.00;99867.00;5024976;28;20351;-82
2023/04/11 04:53:09;;;;;;;;;;;;;;;8.65;100.00;99867.75;5011969;28;19925;-82
2023/04/11 04:55:40;;;;;;;;;;;;;;;8.43;100.00;99879.97;5028390;28;19921;-82
2023/04/11 04:58:05;;;;;;;;;;;;;;;8.10;100.00;99872.06;5028076;28;19976;-81
2023/04/11 05:00:32;;;;;;;;;;;;;;;8.17;100.00;99868.03;5010117;28;19921;-82
2023/04/11 05:03:04;;;;;;;;;;;;;;;8.14;100.00;99862.97;5007164;28;20364;-81
2023/04/11 05:05:31;;;;;;;;;;;;;;;8.15;100.00;99849.72;5010562;28;20441;-81
2023/04/11 05:07:56;;;;;;;;;;;;;;;8.11;100.00;99842.22;5028009;28;20293;-79
2023/04/11 05:10:21;;;;;;;;;;;;;;;8.09;100.00;99844.13;5012080;28;19921;-79
2023/04/11 05:12:47;;;;;;;;;;;;;;;8.14;100.00;99849.84;5039374;28;19922;-80
2023/04/11 05:15:14;;;;;;;;;;;;;;;8.15;100.00;99843.63;5026813;28;20351;-80
2023/04/11 05:17:40;;;;;;;;;;;;;;;8.13;100.00;99845.53;5036144;28;19922;-79
2023/04/11 05:20:07;;;;;;;;;;;;;;;8.11;100.00;99831.69;5039345;28;20004;-79
2023/04/11 05:22:33;;;;;;;;;;;;;;;8.14;100.00;99815.66;4994689;28;19965;-80
2023/04/11 05:24:59;;;;;;;;;;;;;;;8.19;100.00;99829.28;5038995;28;19997;-79
2023/04/11 05:27:26;;;;;;;;;;;;;;;7.89;100.00;99829.09;5008137;28;19968;-81
2023/04/11 05:29:53;;;;;;;;;;;;;;;7.92;100.00;99836.72;5039037;28;19972;-79
2023/04/11 05:32:18;;;;;;;;;;;;;;;7.97;100.00;99834.56;5037957;28;19921;-79
2023/04/11 05:34:54;;;;;;;;;;;;;;;8.00;100.00;99844.84;5011225;28;19928;-78
2023/04/11 05:37:30;;;;;;;;;;;;;;;7.92;100.00;99852.47;5021319;28;20286;-78
2023/04/11 05:39:55;;;;;;;;;;;;;;;7.74;100.00;99860.81;5009283;28;19922;-78
2023/04/11 05:42:20;;;;;;;;;;;;;;;7.70;100.00;99859.38;5039161;28;20356;-79
2023/04/11 05:44:46;;;;;;;;;;;;;;;7.71;100.00;99861.06;5007334;28;20016;-78
2023/04/11 05:47:11;;;;;;;;;;;;;;;7.73;100.00;99861.78;5006899;28;20017;-80
2023/04/11 05:49:37;;;;;;;;;;;;;;;7.77;100.00;99860.59;5006551;28;19948;-83
2023/04/11 05:52:02;;;;;;;;;;;;;;;7.53;100.00;99861.63;5008381;28;19926;-84
2023/04/11 05:54:35;;;;;;;;;;;;;;;7.50;100.00;99862.69;5039643;28;20024;-83
2023/04/11 05:57:05;;;;;;;;;;;;;;;7.59;100.00;99859.38;5023689;28;19922;-84
2023/04/11 05:59:31;;;;;;;;;;;;;;;7.70;100.00;99848.88;5021741;28;19929;-85
2023/04/11 06:01:57;;;;;;;;;;;;;;;7.80;100.00;99855.09;5012092;28;19927;-85
2023/04/11 06:04:23;;;;;;;;;;;;;;;7.91;100.00;99850.78;5012090;28;20000;-85
2023/04/11 06:06:48;;;;;;;;;;;;;;;8.04;100.00;99846.28;5005113;28;19964;-80
2023/04/11 06:09:13;;;;;;;;;;;;;;;8.09;100.00;99846.75;5011541;28;19921;-80
2023/04/11 06:11:39;;;;;;;;;;;;;;;7.93;100.00;99841.00;5006938;28;19925;-80
2023/04/11 06:14:04;;;;;;;;;;;;;;;8.09;100.00;99833.59;5008181;28;19980;-80
2023/04/11 06:16:31;;;;;;;;;;;;;;;8.15;100.00;99831.34;5003444;28;19923;-82
2023/04/11 06:18:57;;;;;;;;;;;;;;;8.25;100.00;99828.81;5008903;28;19921;-78
2023/04/11 06:21:22;;;;;;;;;;;;;;;8.28;100.00;99819.84;5009608;28;19932;-81
2023/04/11 06:23:47;;;;;;;;;;;;;;;8.25;100.00;99807.75;5010475;28;19922;-78
2023/04/11 06:26:13;;;;;;;;;;;;;;;8.42;100.00;99814.38;5007838;28;19968;-79
2023/04/11 06:28:38;;;;;;;;;;;;;;;8.56;100.00;99816.72;5004719;28;20396;-78
2023/04/11 06:31:03;;;;;;;;;;;;;;;8.68;100.00;99820.16;5010362;28;19929;-77
2023/04/11 06:33:29;;;;;;;;;;;;;;;8.72;100.00;99838.19;5036139;28;20254;-78
2023/04/11 06:35:55;;;;;;;;;;;;;;;8.76;100.00;99828.25;5004821;28;19922;-77
2023/04/11 06:38:20;;;;;;;;;;;;;;;8.83;100.00;99829.44;5008521;28;20424;-78
2023/04/11 06:40:47;;;;;;;;;;;;;;;8.90;100.00;99831.44;5006910;28;19953;-79
2023/04/11 06:43:13;;;;;;;;;;;;;;;8.97;100.00;99821.22;5006048;28;19925;-79
2023/04/11 06:45:38;;;;;;;;;;;;;;;9.00;100.00;99815.72;5008497;28;19925;-79
2023/04/11 06:48:04;;;;;;;;;;;;;;;9.22;100.00;99825.31;5010153;28;19945;-78
2023/04/11 06:50:29;;;;;;;;;;;;;;;9.36;100.00;99833.75;5012316;28;19932;-84
2023/04/11 06:52:57;;;;;;;;;;;;;;;9.45;100.00;99832.97;5005744;28;19922;-89
2023/04/11 06:55:22;;;;;;;;;;;;;;;9.34;100.00;99843.56;5007970;28;19922;-91
2023/04/11 06:57:47;;;;;;;;;;;;;;;9.34;100.00;99848.84;5007311;28;19967;-87
2023/04/11 07:00:16;;;;;;;;;;;;;;;9.41;100.00;99836.00;5009232;28;20025;-89
2023/04/11 07:02:43;;;;;;;;;;;;;;;9.31;100.00;99829.81;5024650;28;19933;-91
2023/04/11 07:05:09;;;;;;;;;;;;;;;9.51;100.00;99820.25;5008202;28;20012;-87
2023/04/11 07:07:35;;;;;;;;;;;;;;;9.70;100.00;99809.81;5005012;28;20035;-86
2023/04/11 07:10:00;;;;;;;;;;;;;;;9.74;100.00;99811.22;5008415;28;19925;-87
2023/04/11 07:12:25;;;;;;;;;;;;;;;10.01;100.00;99822.03;5011046;28;20239;-87
2023/04/11 07:14:51;;;;;;;;;;;;;;;10.09;100.00;99819.56;5007622;28;19922;-82
2023/04/11 07:17:16;;;;;;;;;;;;;;;10.28;100.00;99816.19;5008804;28;20008;-88
2023/04/11 07:19:42;;;;;;;;;;;;;;;10.45;100.00;99812.06;5008464;28;19950;-88
2023/04/11 07:22:07;;;;;;;;;;;;;;;10.49;100.00;99805.53;5026493;28;19921;-91
2023/04/11 07:24:32;;;;;;;;;;;;;;;10.49;100.00;99798.44;5036274;28;21252;-86
2023/04/11 07:27:00;;;;;;;;;;;;;;;10.30;100.00;99792.31;5008891;28;19921;-88
2023/04/11 07:29:26;;;;;;;;;;;;;;;10.33;100.00;99792.03;5007253;28;19960;-84
2023/04/11 07:31:51;;;;;;;;;;;;;;;10.38;100.00;99784.53;5008754;28;19929;-81
2023/04/11 07:34:17;;;;;;;;;;;;;;;10.55;100.00;99776.78;5008268;28;19964;-86
2023/04/11 07:36:42;;;;;;;;;;;;;;;10.62;100.00;99777.09;5007258;28;20392;-85
2023/04/11 07:39:11;;;;;;;;;;;;;;;10.77;100.00;99781.00;5008742;28;20345;-87
2023/04/11 07:41:36;;;;;;;;;;;;;;;10.96;100.00;99780.97;5010958;28;19956;-87
2023/04/11 07:44:08;;;;;;;;;;;;;;;11.03;100.00;99783.91;5037817;28;19961;-84
2023/04/11 07:46:33;;;;;;;;;;;;;;;10.84;100.00;99792.66;5013956;28;20689;-81
2023/04/11 07:48:59;;;;;;;;;;;;;;;11.08;100.00;99794.88;5011898;28;20032;-86
2023/04/11 07:51:27;;;;;;;;;;;;;;;11.30;100.00;99799.03;5043678;28;19928;-85
2023/04/11 07:53:53;;;;;;;;;;;;;;;11.51;100.00;99807.59;5015492;28;20274;-88
2023/04/11 07:56:21;;;;;;;;;;;;;;;11.61;100.00;99807.56;5034608;28;20012;-89
2023/04/11 07:58:47;;;;;;;;;;;;;;;11.73;100.00;99803.78;5031962;28;19928;-85
2023/04/11 08:01:19;;;;;;;;;;;;;;;11.81;100.00;99799.50;5015910;28;19925;-85
2023/04/11 08:03:44;;;;;;;;;;;;;;;11.86;100.00;99781.38;5016271;28;19987;-84
2023/04/11 08:06:10;;;;;;;;;;;;;;;11.96;100.00;99775.22;5015892;28;20290;-88
2023/04/11 08:08:35;;;;;;;;;;;;;;;12.05;100.00;99758.47;5016086;28;20409;-89
2023/04/11 08:11:04;;;;;;;;;;;;;;;12.14;100.00;99778.72;5019498;28;19922;-89
2023/04/11 08:13:29;;;;;;;;;;;;;;;12.29;100.00;99771.97;5001346;28;19941;-88
2023/04/11 08:15:54;;;;;;;;;;;;;;;12.41;100.00;99749.63;5013854;28;19921;-90
2023/04/11 08:18:20;;;;;;;;;;;;;;;12.58;100.00;99756.75;5040972;28;19922;-90
2023/04/11 08:20:46;;;;;;;;;;;;;;;12.79;100.00;99763.53;5040734;28;19922;-90
2023/04/11 08:23:11;;;;;;;;;;;;;;;12.99;100.00;99765.06;5019635;28;19937;-89
2023/04/11 08:25:37;;;;;;;;;;;;;;;13.14;100.00;99752.94;5031635;28;20385;-88
2023/04/11 08:28:04;;;;;;;;;;;;;;;13.20;100.00;99762.91;5012856;28;19922;-88
2023/04/11 08:30:30;;;;;;;;;;;;;;;13.27;100.00;99763.97;5015563;28;19921;-84
2023/04/11 08:32:55;;;;;;;;;;;;;;;13.32;100.00;99756.38;5013272;28;20341;-82
2023/04/11 08:35:21;;;;;;;;;;;;;;;13.34;100.00;99765.03;5011965;28;20442;-81
2023/04/11 08:37:47;;;;;;;;;;;;;;;13.36;100.00;99756.94;5008664;28;19929;-82
2023/04/11 08:40:14;;;;;;;;;;;;;;;13.46;100.00;99747.88;5010034;28;20293;-78
2023/04/11 08:42:39;;;;;;;;;;;;;;;13.48;100.00;99743.25;5011520;28;19926;-80
2023/04/11 08:45:07;;;;;;;;;;;;;;;13.52;100.00;99741.13;5013720;28;19968;-83
2023/04/11 08:47:35;;;;;;;;;;;;;;;13.59;100.00;99747.47;5011263;28;19929;-80
2023/04/11 08:50:01;;;;;;;;;;;;;;;13.50;100.00;99754.53;5011403;28;20382;-80
2023/04/11 08:52:27;;;;;;;;;;;;;;;13.56;100.00;99746.91;5011133;28;19929;-80
2023/04/11 08:54:55;;;;;;;;;;;;;;;13.69;100.00;99742.03;5010283;28;20353;-83
2023/04/11 08:57:24;;;;;;;;;;;;;;;13.80;100.00;99734.63;5013673;28;19925;-82
2023/04/11 08:59:51;;;;;;;;;;;;;;;13.84;100.00;99740.47;5036878;28;20008;-84
2023/04/11 09:02:17;;;;;;;;;;;;;;;13.77;100.00;99734.97;5027543;28;19925;-81
2023/04/11 09:04:43;;;;;;;;;;;;;;;13.81;100.00;99732.81;5027315;28;19925;-83
2023/04/11 09:07:10;;;;;;;;;;;;;;;13.83;100.00;99729.03;5016365;28;19917;-80
2023/04/11 09:09:36;;;;;;;;;;;;;;;14.02;100.00;99729.75;5025355;28;19922;-83
2023/04/11 09:12:03;;;;;;;;;;;;;;;14.15;100.00;99722.97;5013079;28;19922;-84
2023/04/11 09:14:28;;;;;;;;;;;;;;;14.30;100.00;99717.91;5010976;28;20016;-81
2023/04/11 09:16:54;;;;;;;;;;;;;;;14.45;100.00;99715.44;5009886;28;19965;-83
2023/04/11 09:19:27;;;;;;;;;;;;;;;14.58;100.00;99702.53;5008050;28;20346;-83
2023/04/11 09:21:53;;;;;;;;;;;;;;;14.68;100.00;99687.25;5006780;28;19922;-77
2023/04/11 09:24:19;;;;;;;;;;;;;;;14.79;100.00;99697.53;5007590;28;20012;-83
2023/04/11 09:26:44;;;;;;;;;;;;;;;14.85;100.00;99693.41;5039978;28;20010;-81
2023/04/11 09:29:10;;;;;;;;;;;;;;;14.92;100.00;99681.94;5007698;28;19928;-81
2023/04/11 09:31:42;;;;;;;;;;;;;;;15.02;100.00;99687.91;5005731;28;19922;-83
2023/04/11 09:34:07;;;;;;;;;;;;;;;15.02;100.00;99690.56;5011169;28;19996;-81
2023/04/11 09:36:33;;;;;;;;;;;;;;;14.96;100.00;99691.22;5013024;28;19976;-80
2023/04/11 09:38:58;;;;;;;;;;;;;;;14.86;100.00;99685.25;5010511;28;19922;-83
2023/04/11 09:41:31;;;;;;;;;;;;;;;14.89;100.00;99684.94;5007596;28;19931;-85
2023/04/11 09:43:56;;;;;;;;;;;;;;;14.95;100.00;99668.34;5011980;28;20024;-82
2023/04/11 09:46:21;;;;;;;;;;;;;;;15.04;100.00;99667.31;5004172;28;19960;-82
2023/04/11 09:48:47;;;;;;;;;;;;;;;15.12;100.00;99662.00;5009799;28;19921;-82
2023/04/11 09:51:13;;;;;;;;;;;;;;;15.23;100.00;99662.63;5007941;28;19921;-81
2023/04/11 09:53:39;;;;;;;;;;;;;;;15.28;100.00;99670.91;5007275;28;19968;-82
2023/04/11 09:56:07;;;;;;;;;;;;;;;15.32;100.00;99667.75;5024952;28;19961;-83
2023/04/11 09:58:33;;;;;;;;;;;;;;;15.35;100.00;99670.09;5005196;28;19922;-82
2023/04/11 10:00:59;;;;;;;;;;;;;;;15.43;100.00;99655.94;5007676;28;20475;-83
2023/04/11 10:03:25;;;;;;;;;;;;;;;15.53;100.00;99648.63;5007143;28;19921;-82
2023/04/11 10:05:54;;;;;;;;;;;;;;;15.65;100.00;99649.06;5004961;28;20054;-82
2023/04/11 10:08:38;;;;;;;;;;;;;;;15.73;100.00;99639.19;5009875;28;19955;-83
2023/04/11 10:11:06;;;;;;;;;;;;;;;15.82;100.00;99646.16;5006973;28;19925;-81
2023/04/11 10:13:40;;;;;;;;;;;;;;;15.85;100.00;99645.78;4992083;28;19929;-82
2023/04/11 10:16:16;;;;;;;;;;;;;;;15.83;100.00;99637.19;5009080;28;19928;-81
2023/04/11 10:18:53;;;;;;;;;;;;;;;15.90;100.00;99637.31;5004584;28;19960;-82
2023/04/11 10:21:28;;;;;;;;;;;;;;;15.93;99.58;99627.13;5007708;28;19922;-81
2023/04/11 10:24:10;;;;;;;;;;;;;;;15.93;99.86;99621.81;5005706;28;19921;-81
2023/04/11 10:26:48;;;;;;;;;;;;;;;16.07;99.44;99622.06;5002365;28;19969;-82
2023/04/11 10:29:43;;;;;;;;;;;;;;;16.04;97.62;99622.41;5006909;28;19926;-83
2023/04/11 10:32:14;;;;;;;;;;;;;;;16.15;97.89;99609.50;5009082;28;19929;-82
2023/04/11 10:34:49;;;;;;;;;;;;;;;16.28;98.01;99614.25;5005625;28;19929;-82
2023/04/11 10:37:15;;;;;;;;;;;;;;;16.39;97.03;99616.50;5007247;28;19944;-82
2023/04/11 10:39:46;;;;;;;;;;;;;;;16.41;96.32;99609.16;5004367;28;20300;-81
2023/04/11 10:42:45;;;;;;;;;;;;;;;16.38;97.68;99610.34;5010029;28;19926;-82
2023/04/11 10:45:18;;;;;;;;;;;;;;;16.45;97.58;99605.13;4975335;28;20056;-82
2023/04/11 10:47:55;;;;;;;;;;;;;;;16.50;95.91;99597.44;5009840;28;19922;-83
2023/04/11 10:50:24;;;;;;;;;;;;;;;16.51;95.78;99604.41;5014510;28;19922;-82
2023/04/11 10:52:50;;;;;;;;;;;;;;;16.45;94.59;99591.81;5012074;28;19926;-83
2023/04/11 10:55:16;;;;;;;;;;;;;;;16.50;93.83;99592.09;5010997;28;20071;-82
2023/04/11 10:58:00;;;;;;;;;;;;;;;16.57;93.75;99593.03;5004089;28;19921;-83
2023/04/11 11:00:26;;;;;;;;;;;;;;;16.54;93.31;99588.09;5006880;28;19925;-83
2023/04/11 11:02:52;;;;;;;;;;;;;;;16.52;92.45;99590.09;5007309;28;19921;-82
2023/04/11 11:05:19;;;;;;;;;;;;;;;16.53;92.61;99597.09;5002304;28;19922;-83
2023/04/11 11:07:45;;;;;;;;;;;;;;;16.64;91.81;99588.69;5008497;28;19928;-82
2023/04/11 11:10:10;;;;;;;;;;;;;;;16.62;91.35;99585.38;5004308;28;20386;-82
2023/04/11 11:12:36;;;;;;;;;;;;;;;16.63;91.84;99581.69;5009689;28;19933;-82
2023/04/11 11:15:11;;;;;;;;;;;;;;;16.67;91.08;99580.31;5005932;28;20027;-82
2023/04/11 11:17:36;;;;;;;;;;;;;;;16.71;90.00;99578.97;5006217;28;19921;-82
2023/04/11 11:20:08;;;;;;;;;;;;;;;16.83;90.54;99581.19;5003715;28;20342;-81
2023/04/11 11:22:34;;;;;;;;;;;;;;;16.87;90.37;99577.13;5035287;28;19930;-82
2023/04/11 11:25:07;;;;;;;;;;;;;;;16.99;88.78;99576.50;5007890;28;20320;-83
2023/04/11 11:27:32;;;;;;;;;;;;;;;17.04;87.81;99568.78;5034904;28;19921;-84
2023/04/11 11:30:08;;;;;;;;;;;;;;;17.20;87.50;99567.75;5006111;28;19968;-84
2023/04/11 11:32:33;;;;;;;;;;;;;;;17.33;86.88;99562.59;5016395;28;19964;-83
2023/04/11 11:34:59;;;;;;;;;;;;;;;17.43;85.62;99549.00;5007513;28;19926;-82
2023/04/11 11:37:24;;;;;;;;;;;;;;;17.52;84.83;99546.03;5005426;28;19967;-82
2023/04/11 11:39:50;;;;;;;;;;;;;;;17.59;83.97;99552.25;5005487;28;20294;-82
2023/04/11 11:42:15;;;;;;;;;;;;;;;17.47;83.52;99552.94;5009903;28;19921;-83
2023/04/11 11:44:41;;;;;;;;;;;;;;;17.57;83.15;99543.59;5006332;28;19922;-83
2023/04/11 11:47:08;;;;;;;;;;;;;;;17.69;84.66;99546.66;5009812;28;20378;-82
2023/04/11 11:49:47;;;;;;;;;;;;;;;17.81;84.67;99529.13;5006698;28;19921;-82
2023/04/11 11:52:30;;;;;;;;;;;;;;;17.97;83.39;99522.69;5002506;28;19922;-82
2023/04/11 11:54:56;;;;;;;;;;;;;;;17.99;82.45;99516.16;5006409;28;19928;-82
2023/04/11 11:57:24;;;;;;;;;;;;;;;18.04;80.44;99506.75;5004998;28;19922;-81
2023/04/11 11:59:56;;;;;;;;;;;;;;;18.09;79.57;99515.81;5005088;28;19988;-82
2023/04/11 12:02:22;;;;;;;;;;;;;;;18.19;79.75;99516.34;5004607;28;20444;-82
2023/04/11 12:04:47;;;;;;;;;;;;;;;18.37;79.79;99511.38;5005693;28;20016;-83
2023/04/11 12:07:13;;;;;;;;;;;;;;;18.52;76.81;99511.25;5004701;28;19930;-84
2023/04/11 12:09:39;;;;;;;;;;;;;;;18.56;76.68;99511.72;5007870;28;19928;-82
2023/04/11 12:12:07;;;;;;;;;;;;;;;18.28;77.91;99499.16;5006261;28;20305;-82
2023/04/11 12:14:33;;;;;;;;;;;;;;;18.38;77.17;99504.97;5005831;28;20223;-82
2023/04/11 12:16:58;;;;;;;;;;;;;;;18.46;77.03;99506.69;5005018;28;19931;-81
2023/04/11 12:19:23;;;;;;;;;;;;;;;18.54;76.96;99503.88;5004255;28;20462;-82
2023/04/11 12:21:49;;;;;;;;;;;;;;;18.61;77.98;99503.97;5006366;28;20336;-83
2023/04/11 12:24:14;;;;;;;;;;;;;;;18.74;76.34;99487.97;5007025;28;19963;-82
2023/04/11 12:26:40;;;;;;;;;;;;;;;18.84;75.77;99496.50;5007922;28;19961;-82
2023/04/11 12:29:06;;;;;;;;;;;;;;;18.81;77.26;99488.84;5011342;28;19971;-82
2023/04/11 12:31:31;;;;;;;;;;;;;;;19.01;77.25;99479.09;5006350;28;19976;-82
2023/04/11 12:33:57;;;;;;;;;;;;;;;19.14;76.84;99473.78;5009119;28;19921;-82
2023/04/11 12:36:22;;;;;;;;;;;;;;;19.21;76.17;99485.34;5009013;28;19925;-82
2023/04/11 12:38:47;;;;;;;;;;;;;;;19.34;74.48;99489.91;5009354;28;19925;-83
2023/04/11 12:41:13;;;;;;;;;;;;;;;19.52;74.37;99494.75;5012473;28;19952;-83
2023/04/11 12:43:38;;;;;;;;;;;;;;;19.58;74.74;99484.06;5010324;28;20152;-82